DTTX/SFA METAR and TAF weather

Enter ICAO airport designator
Station Type Date Time Source
DTTX METAR 2020/03/28 21:00 UTC NOAA

DTTX 282100Z 03003KT 9999 FEW020 SCT030 15/11 Q1014


Station Type Date Time Source
DTTX Decoded METAR 2020/03/28 21:00 UTC NOAA

Sfax El-Maou, Tunisia (DTTX) 34-43N 010-41E 23M
Mar 28, 2020 - 05:00 PM EDT / 2020.03.28 2100 UTC
Wind: from the NNE (030 degrees) at 3 MPH (3 KT):0
Visibility: greater than 7 mile(s):0
Sky conditions: partly cloudy
Temperature: 59 F (15 C)
Dew Point: 51 F (11 C)
Relative Humidity: 76%
Pressure (altimeter): 29.94 in. Hg (1014 hPa)
ob: DTTX 282100Z 03003KT 9999 FEW020 SCT030 15/11 Q1014
cycle: 21

Station Type Date Time Source
DTTX TAF 2020/03/28 18:39 UTC NOAA

TAF DTTX 281700Z 2818/2918 09010KT 6000 SHRA SCT026TCU PROB40
TEMPO 2912/2918 VRB35KT 4000 TSSHRA FEW026CB

Example: see airport list